Terminal Aerodrome Forecast
Issued by NWS Shreveport, LA

Home | Current Version | Previous Version | Text Only | Print | Product List | Glossary On
Versions: 1 2 3 4 5 6 7 8 9 10 11 12 13 14 15
259
FTUS44 KSHV 010541
TAFMLU
TAF
KMLU 010541Z 0106/0206 VRB03KT P6SM FEW170 BKN250
      TEMPO 0110/0113 5SM BR
     FM011300 VRB03KT P6SM BKN170 BKN250
     FM011600 19005KT P6SM SCT030 BKN170 BKN250
     FM011800 18007KT P6SM SCT045 BKN170 BKN250
     FM020100 VRB04KT P6SM VCTS BKN045CB=

USA.gov is the U.S. government's official web portal to all federal, state and local government web resources and services.